Meath Environmental Platform

Observations for Trim Patrick St

Time AQI Temp °C Hum % Pres Pa CO μg/m³ H₂S μg/m³ NO μg/m³ NO₂ μg/m³ O₃ μg/m³ SO₂ μg/m³ PM1 μg/m³ PM2.5 μg/m³ PM10 μg/m³
Saturday 1 August 2026
23:36 3 16.5 62 74,080 0.2 10.82 1.3 33.77 25.98 1.8 7.14 12.99 14.29
23:35 3 16.5 62 74,047 0.21 11.19 1.31 35.47 24.16 2.27 13.14 19.64 21.6
23:34 3 16.5 62 74,009 0.21 11.27 1.29 35.13 24.5 1.95 10.57 20.39 22.42
23:33 3 16.5 62 73,970 0.22 11.63 1.37 38.53 21.04 2.38 11.43 19.67 21.64
23:31 3 16.5 62 73,850 0.21 10.98 1.36 34.79 25.43 1.02 11.43 18.2 20.02
23:30 3 16.6 62 73,803 0.2 10.82 1.37 34.03 27.61 1.71 12.29 20.45 22.49
23:29 3 16.6 61 73,744 0.21 9.83 1.4 28.22 33.29 1.91 10.57 17.55 19.31
23:28 3 16.6 61 73,697 0.23 12.34 1.41 38.11 23.86 1.9 11.43 19.77 21.75
23:27 3 16.6 60 73,630 0.26 11.32 1.38 32.02 29.66 2.56 13.14 22.8 25.08
23:26 3 16.6 60 73,571 0.23 12.96 1.41 38.44 22.55 2.22 12.29 18.35 20.19
23:25 3 16.6 61 73,501 0.21 10.85 1.37 35.4 24.61 1.6 13.14 19.82 21.81
23:23 3 16.7 61 73,396 0.18 9.67 1.27 29.16 33.29 1.76 11.43 20.51 22.56
23:21 3 16.7 61 73,340 0.17 10.09 1.23 29.51 32.39 1.82 11.43 19.05 20.96
23:20 3 16.7 61 73,300 0.17 9.86 1.29 26.44 36.45 1.98 12.29 19.82 21.81
23:19 3 16.7 61 73,281 0.16 9.73 1.31 29.17 32.22 1.67 12.29 20.56 22.62
23:18 3 16.7 60 73,251 0.18 10.07 1.32 28.48 33.36 1.64 11.43 22.1 24.31
23:17 3 16.7 60 73,214 0.18 9.57 1.34 27.79 34.11 2.13 12.29 20.57 22.63
23:16 3 16.7 60 73,167 0.17 10.07 1.32 26.77 36.19 2.04 13.14 22.83 25.12
23:15 3 16.7 60 73,129 0.17 12.02 1.22 31.59 30.21 1.83 14 21.39 23.53
23:14 3 16.7 61 73,049 0.17 11.42 1.27 31.92 31.19 2.06 13.14 21.28 23.41